Terminal Aerodrome Forecast
Issued by NWS

Home | Current Version | Previous Version | Text Only | Print | Product List | Glossary On
Versions: 1 2 3 4 5 6 7 8 9 10 11 12 13 14 15
000
FTUS44 KLUB 222300
TAFCDS
TAF
KCDS 222339Z 2300/2324 34008KT P6SM SCT060 BKN100
     FM230500 30006KT P6SM -SHRA SCT050 OVC090
     FM231400 25014KT P6SM SCT050 OVC090
     FM231600 35022G27KT P6SM SCT060 BKN120=

USA.gov is the U.S. government's official web portal to all federal, state and local government web resources and services.